Time,TemperatureF,DewpointF,PressureIn,WindDirection,WindDirectionDegrees,WindSpeedMPH,WindSpeedGustMPH,Humidity,HourlyPrecipIn,Conditions,Clouds,dailyrainin,SoftwareType,DateUTC
2013-03-18 00:00:00,17.2,13.2,30.36,SSW,195,0.0,3.0,84,0.00,,,0.03,Wunderground v.1.15,2013-03-18 04:00:00,
2013-03-18 00:10:00,17.0,13.0,30.35,SSW,195,0.0,3.0,84,0.00,,,0.00,Wunderground v.1.15,2013-03-18 04:10:00,
2013-03-18 00:20:00,16.3,12.8,30.36,SSW,195,1.0,1.0,86,0.00,,,0.00,Wunderground v.1.15,2013-03-18 04:20:00,
2013-03-18 00:30:00,16.4,13.2,30.36,SSW,195,0.0,3.0,87,0.00,,,0.00,Wunderground v.1.15,2013-03-18 04:30:00,
2013-03-18 00:40:00,16.2,13.3,30.36,SSW,195,1.0,3.0,88,0.00,,,0.00,Wunderground v.1.15,2013-03-18 04:40:00,
2013-03-18 00:50:00,16.2,13.3,30.36,SSW,195,1.0,3.0,88,0.00,,,0.00,Wunderground v.1.15,2013-03-18 04:50:00,
2013-03-18 01:00:00,16.1,12.9,30.36,SSW,195,1.0,1.0,87,0.00,,,0.00,Wunderground v.1.15,2013-03-18 05:00:00,
2013-03-18 01:10:00,15.9,12.7,30.36,SSW,195,1.0,3.0,87,0.00,,,0.00,Wunderground v.1.15,2013-03-18 05:10:00,
2013-03-18 01:20:00,15.3,12.4,30.36,SSW,195,1.0,3.0,88,0.00,,,0.00,Wunderground v.1.15,2013-03-18 05:20:00,
2013-03-18 01:30:00,15.9,13.0,30.35,SSW,195,1.0,1.0,88,0.00,,,0.00,Wunderground v.1.15,2013-03-18 05:30:00,
2013-03-18 01:40:00,15.7,12.8,30.36,SSW,195,1.0,3.0,88,0.00,,,0.00,Wunderground v.1.15,2013-03-18 05:40:00,
2013-03-18 01:50:00,15.8,12.9,30.36,SSW,195,0.0,3.0,88,0.00,,,0.00,Wunderground v.1.15,2013-03-18 05:50:00,
2013-03-18 02:00:00,15.4,12.5,30.36,SSW,195,1.0,3.0,88,0.00,,,0.00,Wunderground v.1.15,2013-03-18 06:00:00,
2013-03-18 02:10:00,15.1,12.4,30.36,South,173,2.0,3.0,89,0.00,,,0.00,Wunderground v.1.15,2013-03-18 06:10:00,
2013-03-18 02:20:00,15.5,13.1,30.36,SSE,166,2.0,2.0,90,0.00,,,0.00,Wunderground v.1.15,2013-03-18 06:20:00,
2013-03-18 02:30:00,15.6,13.2,30.35,SSE,166,1.0,1.0,90,0.00,,,0.00,Wunderground v.1.15,2013-03-18 06:30:00,
2013-03-18 02:40:00,14.9,12.5,30.35,SSE,166,1.0,1.0,90,0.00,,,0.00,Wunderground v.1.15,2013-03-18 06:40:00,
2013-03-18 02:51:00,15.0,12.6,30.34,SSE,166,0.0,3.0,90,0.00,,,0.00,Wunderground v.1.15,2013-03-18 06:51:00,
2013-03-18 03:01:00,15.1,12.7,30.34,SSE,166,1.0,3.0,90,0.00,,,0.00,Wunderground v.1.15,2013-03-18 07:01:00,
2013-03-18 03:11:00,14.6,12.2,30.33,SSE,166,0.0,3.0,90,0.00,,,0.00,Wunderground v.1.15,2013-03-18 07:11:00,
2013-03-18 03:21:00,14.8,12.4,30.33,SSE,166,0.0,3.0,90,0.00,,,0.00,Wunderground v.1.15,2013-03-18 07:21:00,
2013-03-18 03:31:00,14.5,12.1,30.33,SSE,166,1.0,3.0,90,0.00,,,0.00,Wunderground v.1.15,2013-03-18 07:31:00,
2013-03-18 03:40:00,14.5,12.1,30.33,SSE,166,1.0,3.0,90,0.00,,,0.00,Wunderground v.1.15,2013-03-18 07:40:00,
2013-03-18 03:50:00,14.9,12.2,30.32,SSE,166,0.0,3.0,89,0.00,,,0.00,Wunderground v.1.15,2013-03-18 07:50:00,
2013-03-18 04:00:00,14.7,12.0,30.33,SSE,166,0.0,3.0,89,0.00,,,0.00,Wunderground v.1.15,2013-03-18 08:00:00,
2013-03-18 04:10:00,15.0,12.6,30.32,SSE,166,1.0,1.0,90,0.00,,,0.00,Wunderground v.1.15,2013-03-18 08:10:00,
2013-03-18 04:20:00,14.9,12.2,30.32,SSE,166,0.0,3.0,89,0.00,,,0.00,Wunderground v.1.15,2013-03-18 08:20:00,
2013-03-18 04:30:00,15.2,12.5,30.33,SSE,165,1.0,1.0,89,0.00,,,0.00,Wunderground v.1.15,2013-03-18 08:30:00,
2013-03-18 04:40:00,15.7,12.8,30.33,SE,138,1.0,3.0,88,0.00,,,0.00,Wunderground v.1.15,2013-03-18 08:40:00,
2013-03-18 04:50:00,16.1,12.7,30.33,SE,138,1.0,3.0,86,0.00,,,0.00,Wunderground v.1.15,2013-03-18 08:50:00,
2013-03-18 05:00:00,15.3,12.4,30.33,SE,131,1.0,3.0,88,0.00,,,0.00,Wunderground v.1.15,2013-03-18 09:00:00,
2013-03-18 05:10:00,15.7,12.8,30.33,SE,132,1.0,3.0,88,0.00,,,0.00,Wunderground v.1.15,2013-03-18 09:10:00,
2013-03-18 05:20:00,16.7,13.0,30.33,SE,134,1.0,3.0,85,0.00,,,0.00,Wunderground v.1.15,2013-03-18 09:20:00,
2013-03-18 05:30:00,15.8,12.6,30.33,SE,134,1.0,3.0,87,0.00,,,0.00,Wunderground v.1.15,2013-03-18 09:30:00,
2013-03-18 05:40:00,15.3,12.4,30.34,SE,134,1.0,3.0,88,0.00,,,0.00,Wunderground v.1.15,2013-03-18 09:40:00,
2013-03-18 05:50:00,16.1,13.2,30.34,SE,134,1.0,3.0,88,0.00,,,0.00,Wunderground v.1.15,2013-03-18 09:50:00,
2013-03-18 06:01:00,16.9,13.7,30.34,SE,131,1.0,1.0,87,0.00,,,0.00,Wunderground v.1.15,2013-03-18 10:01:00,
2013-03-18 06:10:00,17.1,13.4,30.34,SE,141,1.0,2.0,85,0.00,,,0.00,Wunderground v.1.15,2013-03-18 10:10:00,
2013-03-18 06:21:00,17.4,13.9,30.35,SE,134,1.0,1.0,86,0.00,,,0.00,Wunderground v.1.15,2013-03-18 10:21:00,
2013-03-18 06:30:00,18.0,14.3,30.35,SE,124,2.0,2.0,85,0.00,,,0.00,Wunderground v.1.15,2013-03-18 10:30:00,
2013-03-18 06:41:00,18.4,14.4,30.35,SE,126,2.0,2.0,84,0.00,,,0.00,Wunderground v.1.15,2013-03-18 10:41:00,
2013-03-18 06:51:00,18.5,14.5,30.34,SE,136,2.0,3.0,84,0.00,,,0.00,Wunderground v.1.15,2013-03-18 10:51:00,
2013-03-18 07:01:00,19.0,14.7,30.34,ESE,112,2.0,2.0,83,0.00,,,0.00,Wunderground v.1.15,2013-03-18 11:01:00,
2013-03-18 07:11:00,19.0,14.7,30.34,SE,139,2.0,2.0,83,0.00,,,0.00,Wunderground v.1.15,2013-03-18 11:11:00,
2013-03-18 07:22:00,19.4,15.1,30.35,SE,131,2.0,3.0,83,0.00,,,0.00,Wunderground v.1.15,2013-03-18 11:22:00,
2013-03-18 07:32:00,19.8,15.5,30.34,ESE,115,2.0,3.0,83,0.00,,,0.00,Wunderground v.1.15,2013-03-18 11:32:00,
2013-03-18 07:40:00,20.1,15.5,30.34,SE,125,2.0,2.0,82,0.00,,,0.00,Wunderground v.1.15,2013-03-18 11:40:00,
2013-03-18 07:50:00,20.5,15.9,30.35,SE,131,3.0,5.0,82,0.00,,,0.00,Wunderground v.1.15,2013-03-18 11:50:00,
2013-03-18 08:00:00,21.1,16.2,30.34,SE,134,4.0,5.0,81,0.00,,,0.00,Wunderground v.1.15,2013-03-18 12:00:00,
2013-03-18 08:10:00,21.5,16.3,30.33,ESE,116,4.0,4.0,80,0.00,,,0.00,Wunderground v.1.15,2013-03-18 12:10:00,
2013-03-18 08:20:00,21.9,16.1,30.33,ESE,121,4.0,8.0,78,0.00,,,0.00,Wunderground v.1.15,2013-03-18 12:20:00,
2013-03-18 08:30:00,22.4,15.7,30.32,ESE,116,6.0,7.0,75,0.00,,,0.00,Wunderground v.1.15,2013-03-18 12:30:00,
2013-03-18 08:40:00,23.0,15.0,30.31,ESE,117,6.0,7.0,71,0.00,,,0.00,Wunderground v.1.15,2013-03-18 12:40:00,
2013-03-18 08:50:00,23.3,14.0,30.30,SE,143,8.0,11.0,67,0.00,,,0.00,Wunderground v.1.15,2013-03-18 12:50:00,
2013-03-18 09:00:00,23.4,14.4,30.29,SSE,147,7.0,7.0,68,0.00,,,0.00,Wunderground v.1.15,2013-03-18 13:00:00,
2013-03-18 09:10:00,23.6,15.2,30.29,SE,133,7.0,8.0,70,0.00,,,0.00,Wunderground v.1.15,2013-03-18 13:10:00,
2013-03-18 09:20:00,24.1,15.4,30.28,South,171,7.0,9.0,69,0.00,,,0.00,Wunderground v.1.15,2013-03-18 13:20:00,
2013-03-18 09:30:00,24.2,15.5,30.27,East,90,10.0,10.0,69,0.00,,,0.00,Wunderground v.1.15,2013-03-18 13:30:00,
2013-03-18 09:40:00,24.5,14.8,30.27,SE,138,9.0,9.0,66,0.00,,,0.00,Wunderground v.1.15,2013-03-18 13:40:00,
2013-03-18 09:50:00,25.2,15.4,30.26,ESE,122,8.0,8.0,66,0.00,,,0.00,Wunderground v.1.15,2013-03-18 13:50:00,
2013-03-18 10:00:00,25.6,14.4,30.26,ESE,123,9.0,17.0,62,0.00,,,0.00,Wunderground v.1.15,2013-03-18 14:00:00,
2013-03-18 10:10:00,26.0,14.0,30.26,SE,128,10.0,11.0,60,0.00,,,0.00,Wunderground v.1.15,2013-03-18 14:10:00,
2013-03-18 10:20:00,26.8,15.1,30.25,ESE,112,8.0,8.0,61,0.00,,,0.00,Wunderground v.1.15,2013-03-18 14:20:00,
2013-03-18 10:30:00,27.0,14.2,30.24,SE,145,9.0,9.0,58,0.00,,,0.00,Wunderground v.1.15,2013-03-18 14:30:00,
2013-03-18 10:40:00,27.6,15.1,30.25,SE,146,10.0,13.0,59,0.00,,,0.00,Wunderground v.1.15,2013-03-18 14:40:00,
2013-03-18 10:51:00,28.2,13.7,30.25,SSE,154,9.0,9.0,54,0.00,,,0.00,Wunderground v.1.15,2013-03-18 14:51:00,
2013-03-18 11:00:00,28.5,13.5,30.24,SE,140,9.0,10.0,53,0.00,,,0.00,Wunderground v.1.15,2013-03-18 15:00:00,
2013-03-18 11:11:00,29.2,14.6,30.23,SE,132,8.0,8.0,54,0.00,,,0.00,Wunderground v.1.15,2013-03-18 15:11:00,
2013-03-18 11:21:00,29.2,14.2,30.22,SE,135,9.0,9.0,53,0.00,,,0.00,Wunderground v.1.15,2013-03-18 15:21:00,
2013-03-18 11:31:00,29.4,13.5,30.22,SE,143,8.0,9.0,51,0.00,,,0.00,Wunderground v.1.15,2013-03-18 15:31:00,
2013-03-18 11:40:00,29.6,14.5,30.21,ESE,120,9.0,10.0,53,0.00,,,0.00,Wunderground v.1.15,2013-03-18 15:40:00,
2013-03-18 11:50:00,30.2,15.1,30.21,SE,125,8.0,8.0,53,0.00,,,0.00,Wunderground v.1.15,2013-03-18 15:50:00,
2013-03-18 12:00:00,30.7,16.4,30.20,ESE,106,7.0,7.0,55,0.00,,,0.00,Wunderground v.1.15,2013-03-18 16:00:00,
2013-03-18 12:10:00,30.7,14.7,30.20,East,95,9.0,9.0,51,0.00,,,0.00,Wunderground v.1.15,2013-03-18 16:10:00,
2013-03-18 12:20:00,31.0,15.0,30.19,SE,127,10.0,10.0,51,0.00,,,0.00,Wunderground v.1.15,2013-03-18 16:20:00,
2013-03-18 12:30:00,31.4,15.3,30.19,SE,135,8.0,8.0,51,0.00,,,0.00,Wunderground v.1.15,2013-03-18 16:30:00,
2013-03-18 12:40:00,31.4,15.3,30.19,SSE,149,11.0,13.0,51,0.00,,,0.00,Wunderground v.1.15,2013-03-18 16:40:00,
2013-03-18 12:50:00,31.9,15.8,30.18,ESE,102,11.0,14.0,51,0.00,,,0.00,Wunderground v.1.15,2013-03-18 16:50:00,
2013-03-18 13:00:00,32.1,16.0,30.17,SE,125,11.0,11.0,51,0.00,,,0.00,Wunderground v.1.15,2013-03-18 17:00:00,
2013-03-18 13:10:00,32.3,16.2,30.16,ESE,107,9.0,10.0,51,0.00,,,0.00,Wunderground v.1.15,2013-03-18 17:10:00,
2013-03-18 13:20:00,32.7,16.5,30.15,ESE,118,9.0,17.0,51,0.00,,,0.00,Wunderground v.1.15,2013-03-18 17:20:00,
2013-03-18 13:30:00,32.7,16.1,30.14,SE,136,10.0,10.0,50,0.00,,,0.00,Wunderground v.1.15,2013-03-18 17:30:00,
2013-03-18 13:40:00,33.1,16.9,30.13,ESE,108,10.0,13.0,51,0.00,,,0.00,Wunderground v.1.15,2013-03-18 17:40:00,
2013-03-18 13:50:00,33.3,17.1,30.14,SSE,150,10.0,10.0,51,0.00,,,0.00,Wunderground v.1.15,2013-03-18 17:50:00,
2013-03-18 14:00:00,33.6,16.9,30.13,SSE,147,9.0,9.0,50,0.00,,,0.00,Wunderground v.1.15,2013-03-18 18:00:00,
2013-03-18 14:10:00,34.1,18.3,30.13,SSE,153,8.0,11.0,52,0.00,,,0.00,Wunderground v.1.15,2013-03-18 18:10:00,
2013-03-18 14:21:00,34.1,17.4,30.12,SSE,150,10.0,10.0,50,0.00,,,0.00,Wunderground v.1.15,2013-03-18 18:21:00,
2013-03-18 14:31:00,34.6,18.3,30.11,SE,135,9.0,9.0,51,0.00,,,0.00,Wunderground v.1.15,2013-03-18 18:31:00,
2013-03-18 14:40:00,34.7,17.5,30.11,SSE,151,8.0,8.0,49,0.00,,,0.00,Wunderground v.1.15,2013-03-18 18:40:00,
2013-03-18 14:51:00,34.8,18.0,30.10,SE,144,8.0,8.0,50,0.00,,,0.00,Wunderground v.1.15,2013-03-18 18:51:00,
2013-03-18 15:01:00,34.9,17.7,30.10,SE,146,7.0,12.0,49,0.00,,,0.00,Wunderground v.1.15,2013-03-18 19:01:00,
2013-03-18 15:11:00,33.3,21.7,30.10,SSE,153,13.0,13.0,62,0.00,,,0.00,Wunderground v.1.15,2013-03-18 19:11:00,
2013-03-18 15:21:00,32.8,22.3,30.09,SSE,160,13.0,16.0,65,0.00,,,0.00,Wunderground v.1.15,2013-03-18 19:21:00,
2013-03-18 15:31:00,31.4,24.1,30.08,SSE,150,14.0,21.0,74,0.00,,,0.00,Wunderground v.1.15,2013-03-18 19:31:00,
2013-03-18 15:40:00,30.2,25.1,30.08,SSE,148,13.0,13.0,81,0.00,,,0.00,Wunderground v.1.15,2013-03-18 19:40:00,
2013-03-18 15:50:00,29.8,26.1,30.07,SSE,154,11.0,11.0,86,0.00,,,0.00,Wunderground v.1.15,2013-03-18 19:50:00,
2013-03-18 16:00:00,29.7,26.3,30.07,ESE,109,9.0,9.0,87,0.00,,,0.00,Wunderground v.1.15,2013-03-18 20:00:00,
2013-03-18 16:10:00,29.7,26.3,30.06,SSE,158,9.0,11.0,87,0.00,,,0.00,Wunderground v.1.15,2013-03-18 20:10:00,
2013-03-18 16:20:00,29.6,26.5,30.06,SSE,156,10.0,17.0,88,0.00,,,0.00,Wunderground v.1.15,2013-03-18 20:20:00,
2013-03-18 16:30:00,29.4,26.6,30.05,SE,134,10.0,18.0,89,0.00,,,0.00,Wunderground v.1.15,2013-03-18 20:30:00,
2013-03-18 16:40:00,29.0,26.2,30.05,SSE,159,12.0,12.0,89,0.00,,,0.00,Wunderground v.1.15,2013-03-18 20:40:00,
2013-03-18 16:50:00,28.7,26.1,30.04,East,101,11.0,11.0,90,0.00,,,0.00,Wunderground v.1.15,2013-03-18 20:50:00,
2013-03-18 17:00:00,28.5,25.9,30.03,SSE,155,11.0,12.0,90,0.00,,,0.00,Wunderground v.1.15,2013-03-18 21:00:00,
2013-03-18 17:10:00,28.5,26.2,30.03,SE,134,11.0,11.0,91,0.00,,,0.00,Wunderground v.1.15,2013-03-18 21:10:00,
2013-03-18 17:20:00,28.4,26.1,30.02,SSE,152,11.0,14.0,91,0.00,,,0.00,Wunderground v.1.15,2013-03-18 21:20:00,
2013-03-18 17:30:00,28.4,25.8,30.01,SE,124,13.0,13.0,90,0.00,,,0.00,Wunderground v.1.15,2013-03-18 21:30:00,
2013-03-18 17:40:00,28.4,25.8,30.00,SE,146,12.0,23.0,90,0.00,,,0.00,Wunderground v.1.15,2013-03-18 21:40:00,
2013-03-18 17:50:00,28.4,25.8,29.99,SSE,163,13.0,13.0,90,0.00,,,0.00,Wunderground v.1.15,2013-03-18 21:50:00,
2013-03-18 18:00:00,28.4,25.8,29.98,ESE,122,15.0,16.0,90,0.00,,,0.00,Wunderground v.1.15,2013-03-18 22:00:00,
2013-03-18 18:10:00,28.5,25.9,29.97,SSE,151,12.0,12.0,90,0.00,,,0.00,Wunderground v.1.15,2013-03-18 22:10:00,
2013-03-18 18:21:00,28.6,26.0,29.97,SSE,157,12.0,14.0,90,0.00,,,0.00,Wunderground v.1.15,2013-03-18 22:21:00,
2013-03-18 18:31:00,28.7,25.9,29.96,South,177,13.0,13.0,89,0.00,,,0.00,Wunderground v.1.15,2013-03-18 22:31:00,
2013-03-18 18:41:00,28.7,25.6,29.96,SSE,159,12.0,12.0,88,0.00,,,0.00,Wunderground v.1.15,2013-03-18 22:41:00,
2013-03-18 18:51:00,28.7,25.6,29.95,SE,135,11.0,12.0,88,0.00,,,0.00,Wunderground v.1.15,2013-03-18 22:51:00,
2013-03-18 19:01:00,28.7,25.6,29.96,SE,141,11.0,11.0,88,0.00,,,0.00,Wunderground v.1.15,2013-03-18 23:01:00,
2013-03-18 19:11:00,28.7,25.6,29.95,SSE,148,10.0,13.0,88,0.00,,,0.00,Wunderground v.1.15,2013-03-18 23:11:00,
2013-03-18 19:21:00,28.8,25.7,29.95,SSE,158,12.0,12.0,88,0.00,,,0.00,Wunderground v.1.15,2013-03-18 23:21:00,
2013-03-18 19:31:00,28.8,25.4,29.95,ESE,120,11.0,14.0,87,0.00,,,0.00,Wunderground v.1.15,2013-03-18 23:31:00,
2013-03-18 19:50:00,28.6,25.8,29.94,SE,144,8.0,8.0,89,0.00,,,0.00,Wunderground v.1.15,2013-03-18 23:50:00,
2013-03-18 20:00:00,28.5,25.9,29.93,SE,140,8.0,8.0,90,0.00,,,0.00,Wunderground v.1.15,2013-03-19 00:00:00,
2013-03-18 20:10:00,28.5,25.9,29.92,SE,130,8.0,8.0,90,0.00,,,0.00,Wunderground v.1.15,2013-03-19 00:10:00,
2013-03-18 20:20:00,28.5,26.2,29.92,SE,138,8.0,8.0,91,0.00,,,0.00,Wunderground v.1.15,2013-03-19 00:20:00,
2013-03-18 20:30:00,28.5,26.2,29.92,SE,144,8.0,9.0,91,0.00,,,0.00,Wunderground v.1.15,2013-03-19 00:30:00,
2013-03-18 20:40:00,28.6,26.3,29.91,SE,138,8.0,8.0,91,0.00,,,0.00,Wunderground v.1.15,2013-03-19 00:40:00,
2013-03-18 20:50:00,28.6,26.3,29.91,SE,144,7.0,7.0,91,0.00,,,0.00,Wunderground v.1.15,2013-03-19 00:50:00,
2013-03-18 21:00:00,28.7,26.4,29.90,SE,141,8.0,8.0,91,0.00,,,0.00,Wunderground v.1.15,2013-03-19 01:00:00,
2013-03-18 21:10:00,28.8,26.8,29.89,SE,133,8.0,8.0,92,0.00,,,0.00,Wunderground v.1.15,2013-03-19 01:10:00,
2013-03-18 21:20:00,28.9,26.9,29.89,SE,138,8.0,8.0,92,0.00,,,0.00,Wunderground v.1.15,2013-03-19 01:20:00,
2013-03-18 21:30:00,29.0,27.0,29.88,East,81,8.0,13.0,92,0.00,,,0.00,Wunderground v.1.15,2013-03-19 01:30:00,
2013-03-18 21:40:00,29.4,27.1,29.88,ESE,121,9.0,10.0,91,0.00,,,0.00,Wunderground v.1.15,2013-03-19 01:40:00,
2013-03-18 21:50:00,29.8,27.5,29.87,ESE,107,10.0,10.0,91,0.00,,,0.00,Wunderground v.1.15,2013-03-19 01:50:00,
2013-03-18 22:00:00,30.2,27.6,29.86,SSE,147,13.0,16.0,90,0.00,,,0.00,Wunderground v.1.15,2013-03-19 02:00:00,
2013-03-18 22:10:00,30.3,27.7,29.86,SSE,147,12.0,12.0,90,0.00,,,0.00,Wunderground v.1.15,2013-03-19 02:10:00,
2013-03-18 22:21:00,30.6,28.0,29.84,ESE,121,14.0,14.0,90,0.00,,,0.00,Wunderground v.1.15,2013-03-19 02:21:00,
2013-03-18 22:31:00,31.1,28.0,29.83,SE,138,15.0,15.0,88,0.00,,,0.00,Wunderground v.1.15,2013-03-19 02:31:00,
2013-03-18 22:40:00,31.2,28.1,29.82,SSE,167,13.0,21.0,88,0.00,,,0.00,Wunderground v.1.15,2013-03-19 02:40:00,
2013-03-18 22:51:00,31.2,28.1,29.82,SSE,148,16.0,18.0,88,0.00,,,0.00,Wunderground v.1.15,2013-03-19 02:51:00,
2013-03-18 23:01:00,31.4,28.0,29.81,SSE,153,14.0,14.0,87,0.00,,,0.00,Wunderground v.1.15,2013-03-19 03:01:00,
2013-03-18 23:11:00,31.4,28.3,29.81,South,169,14.0,14.0,88,0.00,,,0.00,Wunderground v.1.15,2013-03-19 03:11:00,
2013-03-18 23:21:00,31.5,28.4,29.81,SSE,165,12.0,15.0,88,0.00,,,0.00,Wunderground v.1.15,2013-03-19 03:21:00,
2013-03-18 23:31:00,31.5,28.6,29.80,SSE,149,13.0,19.0,89,0.00,,,0.00,Wunderground v.1.15,2013-03-19 03:31:00,
2013-03-18 23:42:00,31.6,28.7,29.79,SSE,161,14.0,14.0,89,0.00,,,0.00,Wunderground v.1.15,2013-03-19 03:42:00,
2013-03-18 23:50:00,31.7,29.1,29.79,SSE,167,12.0,14.0,90,0.00,,,0.00,Wunderground v.1.15,2013-03-19 03:50:00,